Time;durP1;ratioP1;P1;durP2;ratioP2;P2;SDS_P1;SDS_P2;PMS_P1;PMS_P2;Temp;Humidity;BMP_temperature;BMP_pressure;BME280_temperature;BME280_humidity;BME280_pressure;Samples;Min_cycle;Max_cycle;Signal;HPM_P1;HPM_P2
2021/12/09 00:00:19;;;;;;;37.65;16.55;;;2.70;99.90;;;;;;4973945;29;20027;-89
2021/12/09 00:02:45;;;;;;;41.75;17.77;;;2.80;99.90;;;;;;4975753;29;20023;-89
2021/12/09 00:05:14;;;;;;;36.03;16.98;;;2.90;99.90;;;;;;4975416;29;20045;-86
2021/12/09 00:07:42;;;;;;;42.92;17.88;;;2.90;99.90;;;;;;4973977;28;20020;-86
2021/12/09 00:10:10;;;;;;;39.17;17.88;;;2.90;99.90;;;;;;4949914;28;20027;-86
2021/12/09 00:12:36;;;;;;;37.35;16.90;;;2.80;99.90;;;;;;4968438;29;20015;-87
2021/12/09 00:15:02;;;;;;;38.78;18.08;;;2.80;99.90;;;;;;4959347;29;20086;-87
2021/12/09 00:17:28;;;;;;;38.40;18.23;;;2.80;99.90;;;;;;4952332;29;20024;-86
2021/12/09 00:19:53;;;;;;;42.53;18.95;;;2.80;99.90;;;;;;4959001;28;20042;-86
2021/12/09 00:22:19;;;;;;;40.80;19.20;;;2.80;99.90;;;;;;4948843;29;20146;-88
2021/12/09 00:24:45;;;;;;;40.22;18.50;;;2.90;99.90;;;;;;4957243;29;20020;-87
2021/12/09 00:27:12;;;;;;;36.80;18.00;;;2.90;99.90;;;;;;4944738;28;20050;-85
2021/12/09 00:29:37;;;;;;;41.22;18.10;;;2.80;99.90;;;;;;4957073;28;20040;-84
2021/12/09 00:32:04;;;;;;;41.08;18.90;;;2.80;99.90;;;;;;4969121;28;20024;-85
2021/12/09 00:34:33;;;;;;;40.22;18.70;;;2.80;99.90;;;;;;4974845;28;20038;-86
2021/12/09 00:37:15;;;;;;;38.63;18.23;;;2.80;99.90;;;;;;4989426;23;20042;-89
2021/12/09 00:39:42;;;;;;;48.15;19.27;;;2.90;99.90;;;;;;4970632;28;20115;-89
2021/12/09 00:42:09;;;;;;;46.97;19.35;;;2.90;99.90;;;;;;4957411;28;20066;-87
2021/12/09 00:44:35;;;;;;;47.63;19.23;;;2.90;99.90;;;;;;4956370;29;20015;-88
2021/12/09 00:47:01;;;;;;;44.30;19.38;;;2.80;99.90;;;;;;4985944;28;20027;-88
2021/12/09 00:49:30;;;;;;;45.08;20.63;;;2.80;99.90;;;;;;4958662;28;20427;-89
2021/12/09 00:51:57;;;;;;;51.55;21.42;;;2.70;99.90;;;;;;4970476;28;20027;-89
2021/12/09 00:54:22;;;;;;;45.72;20.50;;;2.70;99.90;;;;;;4973103;28;20026;-88
2021/12/09 00:56:48;;;;;;;53.53;22.92;;;2.70;99.90;;;;;;4941419;28;20413;-87
2021/12/09 00:59:14;;;;;;;49.53;22.10;;;2.70;99.90;;;;;;4960902;28;20091;-87
2021/12/09 01:01:40;;;;;;;53.45;23.15;;;2.60;99.90;;;;;;4978467;28;20078;-87
2021/12/09 01:04:06;;;;;;;58.55;25.25;;;2.60;99.90;;;;;;4957531;28;20386;-87
2021/12/09 01:06:32;;;;;;;59.63;23.90;;;2.60;99.90;;;;;;4974305;28;20026;-87
2021/12/09 01:08:57;;;;;;;54.53;24.23;;;2.60;99.90;;;;;;4969203;28;20097;-88
2021/12/09 01:11:23;;;;;;;58.25;25.00;;;2.50;99.90;;;;;;4991348;28;20037;-87
2021/12/09 01:13:49;;;;;;;62.47;26.17;;;2.50;99.90;;;;;;5002184;28;20018;-87
2021/12/09 01:16:15;;;;;;;61.13;25.40;;;2.50;99.90;;;;;;4985081;28;20027;-86
2021/12/09 01:18:41;;;;;;;61.03;26.88;;;2.50;99.90;;;;;;4995440;28;20038;-88
2021/12/09 01:21:08;;;;;;;62.92;27.05;;;2.40;99.90;;;;;;4989194;28;20019;-89
2021/12/09 01:23:35;;;;;;;64.32;27.45;;;2.40;99.90;;;;;;4972186;28;20031;-87
2021/12/09 01:26:03;;;;;;;68.00;28.42;;;2.40;99.90;;;;;;4988920;28;20030;-87
2021/12/09 01:28:33;;;;;;;75.50;29.25;;;2.30;99.90;;;;;;4971336;28;20093;-89
2021/12/09 01:31:05;;;;;;;73.38;29.55;;;2.30;99.90;;;;;;4995798;28;20046;-88
2021/12/09 01:33:32;;;;;;;79.35;31.33;;;2.30;99.90;;;;;;4979158;28;20029;-87
2021/12/09 01:35:59;;;;;;;72.85;29.70;;;2.20;99.90;;;;;;4991878;28;20054;-88
2021/12/09 01:38:29;;;;;;;79.60;32.10;;;2.20;99.90;;;;;;4979533;28;20047;-88
2021/12/09 01:40:55;;;;;;;72.20;30.75;;;2.20;99.90;;;;;;4974930;28;20041;-88
2021/12/09 01:43:22;;;;;;;76.68;31.20;;;2.20;99.90;;;;;;4957084;28;20027;-87
2021/12/09 01:45:48;;;;;;;83.70;33.80;;;2.20;99.90;;;;;;4972926;28;20037;-88
2021/12/09 01:48:16;;;;;;;82.22;33.05;;;2.20;99.90;;;;;;4957640;28;20022;-87
2021/12/09 01:50:41;;;;;;;86.03;34.05;;;2.20;99.90;;;;;;4990612;28;20035;-86
2021/12/09 01:53:08;;;;;;;80.88;34.80;;;2.20;99.90;;;;;;4971820;28;20219;-87
2021/12/09 01:55:35;;;;;;;82.90;33.30;;;2.20;99.90;;;;;;4972791;28;20054;-89
2021/12/09 01:58:02;;;;;;;86.93;34.65;;;2.20;99.90;;;;;;4973396;28;20019;-88
2021/12/09 02:00:30;;;;;;;90.15;36.40;;;2.20;99.90;;;;;;4972471;28;20034;-89
2021/12/09 02:02:56;;;;;;;98.07;36.85;;;2.10;99.90;;;;;;4990056;28;20086;-86
2021/12/09 02:05:23;;;;;;;98.78;37.65;;;2.10;99.90;;;;;;4990252;28;20038;-87
2021/12/09 02:07:49;;;;;;;98.38;39.05;;;2.00;99.90;;;;;;4973526;28;20055;-88
2021/12/09 02:10:19;;;;;;;99.25;38.10;;;2.00;99.90;;;;;;4979037;28;20031;-88
2021/12/09 02:12:50;;;;;;;105.80;37.55;;;2.00;99.90;;;;;;4960721;28;20087;-86
2021/12/09 02:15:18;;;;;;;97.18;39.03;;;1.90;99.90;;;;;;4994098;28;20041;-87
2021/12/09 02:17:44;;;;;;;102.85;39.17;;;1.90;99.90;;;;;;4999823;28;20035;-87
2021/12/09 02:20:10;;;;;;;96.80;37.95;;;1.80;99.90;;;;;;4977627;28;20039;-89
2021/12/09 02:22:36;;;;;;;107.68;40.83;;;1.80;99.90;;;;;;4992695;28;20023;-89
2021/12/09 02:25:03;;;;;;;100.25;37.72;;;1.80;99.90;;;;;;4979878;28;20053;-87
2021/12/09 02:27:29;;;;;;;98.38;37.72;;;1.90;99.90;;;;;;4974941;28;20023;-87
2021/12/09 02:29:56;;;;;;;99.85;38.90;;;1.90;99.90;;;;;;4990552;28;20041;-88
2021/12/09 02:32:22;;;;;;;105.65;39.80;;;1.80;99.90;;;;;;4989649;28;20023;-87
2021/12/09 02:34:48;;;;;;;110.35;39.75;;;1.70;99.90;;;;;;4973181;28;20038;-88
2021/12/09 02:37:14;;;;;;;101.53;38.45;;;1.70;99.90;;;;;;4974057;28;20041;-88
2021/12/09 02:39:42;;;;;;;106.53;40.70;;;1.70;99.90;;;;;;4995253;28;20087;-87
2021/12/09 02:42:08;;;;;;;123.57;42.92;;;1.60;99.90;;;;;;4990761;28;20066;-88
2021/12/09 02:44:34;;;;;;;108.45;41.13;;;1.70;99.90;;;;;;4989605;28;20035;-88
2021/12/09 02:47:00;;;;;;;116.97;42.15;;;1.60;99.90;;;;;;4971386;28;20027;-89
2021/12/09 02:49:28;;;;;;;108.15;40.78;;;1.60;99.90;;;;;;4970945;28;20041;-87
2021/12/09 02:51:55;;;;;;;122.88;43.85;;;1.60;99.90;;;;;;4954425;28;20034;-87
2021/12/09 02:54:23;;;;;;;114.53;41.47;;;1.60;99.90;;;;;;4971266;28;20066;-86
2021/12/09 02:56:52;;;;;;;115.38;43.30;;;1.60;99.90;;;;;;4998181;28;20054;-88
2021/12/09 02:59:18;;;;;;;116.60;43.70;;;1.60;99.90;;;;;;4990039;28;20034;-87
2021/12/09 03:02:05;;;;;;;110.65;40.92;;;1.60;99.90;;;;;;4972939;28;20031;-89
2021/12/09 03:04:58;;;;;;;120.43;42.78;;;1.60;99.90;;;;;;4988749;28;20062;-88
2021/12/09 03:07:34;;;;;;;118.60;43.53;;;1.50;99.90;;;;;;4971397;28;20496;-88
2021/12/09 03:10:09;;;;;;;122.40;44.05;;;1.50;99.90;;;;;;4990873;28;20049;-87
2021/12/09 03:12:41;;;;;;;122.97;43.92;;;1.40;99.90;;;;;;4974933;28;20035;-87
2021/12/09 03:15:09;;;;;;;126.95;44.03;;;1.40;99.90;;;;;;4975676;28;20107;-88
2021/12/09 03:17:37;;;;;;;129.18;45.60;;;1.40;99.90;;;;;;4992375;28;20042;-88
2021/12/09 03:20:05;;;;;;;133.82;43.83;;;1.40;99.90;;;;;;4989704;28;20039;-87
2021/12/09 03:22:31;;;;;;;130.75;43.95;;;1.40;99.90;;;;;;4956436;28;20061;-85
2021/12/09 03:24:57;;;;;;;124.65;42.75;;;1.40;99.90;;;;;;4975190;28;20027;-85
2021/12/09 03:27:23;;;;;;;128.48;44.67;;;1.40;99.90;;;;;;4993455;28;20023;-86
2021/12/09 03:29:49;;;;;;;131.05;46.33;;;1.40;99.90;;;;;;4957465;28;20026;-86
2021/12/09 03:32:17;;;;;;;130.95;47.28;;;1.40;99.90;;;;;;4987847;28;20434;-85
2021/12/09 03:34:44;;;;;;;130.82;45.92;;;1.40;99.90;;;;;;4993879;28;20039;-86
2021/12/09 03:37:17;;;;;;;139.50;48.88;;;1.40;99.90;;;;;;4988969;28;20034;-86
2021/12/09 03:39:43;;;;;;;141.35;47.63;;;1.40;99.90;;;;;;4989114;28;20089;-86
2021/12/09 03:42:13;;;;;;;140.15;47.75;;;1.40;99.90;;;;;;4955771;28;20149;-85
2021/12/09 03:44:39;;;;;;;141.38;46.40;;;1.30;99.90;;;;;;4988929;28;20031;-85
2021/12/09 03:47:08;;;;;;;135.80;45.88;;;1.20;99.90;;;;;;4970065;28;20027;-86
2021/12/09 03:49:35;;;;;;;138.90;46.80;;;1.20;99.90;;;;;;4973200;28;20062;-85
2021/12/09 03:52:01;;;;;;;134.10;47.42;;;1.20;99.90;;;;;;4991181;28;20027;-86
2021/12/09 03:54:27;;;;;;;150.50;50.22;;;1.20;99.90;;;;;;4990876;28;20093;-86
2021/12/09 03:56:53;;;;;;;137.63;48.85;;;1.30;99.90;;;;;;4986869;28;20110;-86
2021/12/09 03:59:20;;;;;;;138.85;49.78;;;1.30;99.90;;;;;;4987883;28;20026;-86
2021/12/09 04:01:46;;;;;;;139.35;46.92;;;1.30;99.90;;;;;;4972332;28;20050;-85
2021/12/09 04:04:14;;;;;;;139.00;47.20;;;1.20;99.90;;;;;;4990967;28;20399;-85
2021/12/09 04:06:40;;;;;;;138.40;50.90;;;1.20;99.90;;;;;;4974124;28;20033;-86
2021/12/09 04:09:09;;;;;;;147.93;50.78;;;1.20;99.90;;;;;;4990079;28;20027;-85
2021/12/09 04:11:35;;;;;;;152.60;49.40;;;1.20;99.90;;;;;;4980687;28;20051;-87
2021/12/09 04:14:02;;;;;;;147.80;49.88;;;1.20;99.90;;;;;;4982671;28;20070;-85
2021/12/09 04:16:29;;;;;;;135.25;47.08;;;1.20;99.90;;;;;;4982415;28;20030;-86
2021/12/09 04:18:55;;;;;;;145.60;49.13;;;1.20;99.90;;;;;;4999028;28;20034;-85
2021/12/09 04:21:21;;;;;;;152.10;50.45;;;1.20;99.90;;;;;;4998750;28;20030;-87
2021/12/09 04:23:47;;;;;;;151.52;51.78;;;1.20;99.90;;;;;;4997003;28;20106;-88
2021/12/09 04:26:13;;;;;;;147.95;49.67;;;1.20;99.90;;;;;;4980102;28;20019;-87
2021/12/09 04:28:40;;;;;;;151.15;51.47;;;1.20;99.90;;;;;;4962115;28;20042;-87
2021/12/09 04:31:06;;;;;;;147.77;51.83;;;1.20;99.90;;;;;;4995244;28;20022;-88
2021/12/09 04:33:32;;;;;;;152.98;49.35;;;1.20;99.90;;;;;;4995645;28;20026;-88
2021/12/09 04:35:59;;;;;;;151.10;51.08;;;1.20;99.90;;;;;;4980638;28;20035;-88
2021/12/09 04:38:26;;;;;;;148.23;50.63;;;1.20;99.90;;;;;;4997185;28;20014;-87
2021/12/09 04:40:53;;;;;;;152.38;50.60;;;1.20;99.90;;;;;;4981445;28;20062;-86
2021/12/09 04:43:18;;;;;;;140.65;49.08;;;1.20;99.90;;;;;;4981852;28;20062;-87
2021/12/09 04:45:44;;;;;;;146.18;50.20;;;1.20;99.90;;;;;;4981875;28;20022;-88
2021/12/09 04:48:10;;;;;;;145.93;48.30;;;1.10;99.90;;;;;;4998706;28;20082;-86
2021/12/09 04:50:39;;;;;;;144.73;49.10;;;1.20;99.90;;;;;;4982075;28;20078;-87
2021/12/09 04:53:06;;;;;;;152.88;51.17;;;1.20;99.90;;;;;;4998656;28;20018;-88
2021/12/09 04:55:33;;;;;;;153.10;50.08;;;1.20;99.90;;;;;;4982098;28;20031;-87
2021/12/09 04:57:59;;;;;;;150.50;49.72;;;1.20;99.90;;;;;;4998007;28;20027;-88
2021/12/09 05:00:27;;;;;;;143.70;48.17;;;1.20;99.90;;;;;;4992657;28;20023;-88
2021/12/09 05:03:13;;;;;;;154.55;47.88;;;1.20;99.90;;;;;;4973222;28;20050;-88
2021/12/09 05:05:42;;;;;;;148.10;48.83;;;1.20;99.90;;;;;;4960599;28;20019;-89
2021/12/09 05:08:11;;;;;;;145.98;48.60;;;1.20;99.90;;;;;;4980959;28;20031;-89
2021/12/09 05:11:02;;;;;;;133.82;47.05;;;1.30;99.90;;;;;;4981416;28;20041;-88
2021/12/09 05:13:29;;;;;;;140.43;48.95;;;1.30;99.90;;;;;;4981523;28;20027;-87
2021/12/09 05:15:56;;;;;;;138.63;44.35;;;1.30;99.90;;;;;;4981560;28;20030;-87
2021/12/09 05:18:23;;;;;;;118.38;42.83;;;1.30;99.90;;;;;;4998226;28;20027;-88
2021/12/09 05:20:50;;;;;;;128.25;44.63;;;1.30;99.90;;;;;;4998219;28;20039;-88
2021/12/09 05:23:17;;;;;;;135.65;47.40;;;1.30;99.90;;;;;;4997967;28;20086;-87
2021/12/09 05:25:44;;;;;;;137.65;46.30;;;1.30;99.90;;;;;;4997935;28;20097;-89
2021/12/09 05:28:15;;;;;;;133.13;46.65;;;1.30;99.90;;;;;;4977740;28;20053;-88
2021/12/09 05:33:28;;;;;;;133.48;45.15;;;1.40;99.90;;;;;;4998813;28;20050;-88
2021/12/09 05:35:54;;;;;;;139.68;47.33;;;1.40;99.90;;;;;;4998875;28;20041;-88
2021/12/09 05:38:20;;;;;;;127.35;43.58;;;1.40;99.90;;;;;;4981499;28;20038;-87
2021/12/09 05:40:47;;;;;;;138.68;48.83;;;1.40;99.90;;;;;;4965820;28;20034;-88
2021/12/09 05:43:15;;;;;;;125.30;44.97;;;1.50;99.90;;;;;;4998178;28;20082;-87
2021/12/09 05:45:42;;;;;;;128.23;45.00;;;1.50;99.90;;;;;;4997967;28;20071;-87
2021/12/09 05:48:10;;;;;;;121.63;43.08;;;1.50;99.90;;;;;;4977131;28;20039;-87
2021/12/09 05:50:37;;;;;;;125.05;43.78;;;1.50;99.90;;;;;;4975923;28;20062;-87
2021/12/09 05:53:05;;;;;;;115.82;40.80;;;1.50;99.90;;;;;;4980633;28;20038;-87
2021/12/09 05:55:31;;;;;;;117.63;41.78;;;1.50;99.90;;;;;;4983639;28;20026;-86
2021/12/09 05:57:57;;;;;;;124.82;42.65;;;1.50;99.90;;;;;;4983910;28;20019;-85
2021/12/09 06:00:23;;;;;;;128.02;41.15;;;1.50;99.90;;;;;;5000570;28;20127;-87
2021/12/09 06:02:50;;;;;;;146.52;45.35;;;1.50;99.90;;;;;;4983628;28;20019;-87
2021/12/09 06:05:16;;;;;;;132.35;43.00;;;1.50;99.90;;;;;;4983406;28;20038;-88
2021/12/09 06:07:42;;;;;;;128.35;42.08;;;1.50;99.90;;;;;;4982894;28;20031;-88
2021/12/09 06:10:09;;;;;;;131.35;44.58;;;1.50;99.90;;;;;;5000527;28;20022;-86
2021/12/09 06:12:36;;;;;;;145.32;44.95;;;1.50;99.90;;;;;;4983235;28;20086;-88
2021/12/09 06:15:02;;;;;;;121.35;42.33;;;1.50;99.90;;;;;;4983413;28;20019;-87
2021/12/09 06:17:28;;;;;;;137.18;44.50;;;1.50;99.90;;;;;;4982430;28;20038;-87
2021/12/09 06:19:53;;;;;;;126.85;41.22;;;1.50;99.90;;;;;;4983719;28;20034;-86
2021/12/09 06:22:19;;;;;;;121.28;41.42;;;1.50;99.90;;;;;;5000609;28;20030;-87
2021/12/09 06:24:46;;;;;;;123.07;40.78;;;1.50;99.90;;;;;;5000376;28;20018;-88
2021/12/09 06:27:13;;;;;;;135.05;44.03;;;1.50;99.90;;;;;;4983662;28;20034;-88
2021/12/09 06:29:39;;;;;;;133.50;42.00;;;1.50;99.90;;;;;;4983866;28;20041;-87
2021/12/09 06:32:06;;;;;;;128.85;40.75;;;1.50;99.90;;;;;;5000516;28;20027;-87
2021/12/09 06:34:32;;;;;;;124.32;42.33;;;1.50;99.90;;;;;;4983942;28;20065;-88
2021/12/09 06:36:59;;;;;;;125.60;41.15;;;1.50;99.90;;;;;;5016808;23;20039;-87
2021/12/09 06:39:25;;;;;;;120.72;41.22;;;1.50;99.90;;;;;;4949218;29;20046;-88
2021/12/09 06:41:51;;;;;;;104.05;37.38;;;1.50;99.90;;;;;;4949591;29;20075;-88
2021/12/09 06:44:17;;;;;;;123.72;38.55;;;1.50;99.90;;;;;;4965417;29;20037;-87
2021/12/09 06:46:43;;;;;;;122.75;41.45;;;1.50;99.90;;;;;;4947494;29;20134;-87
2021/12/09 06:49:09;;;;;;;106.28;39.15;;;1.60;99.90;;;;;;4966873;29;20484;-88
2021/12/09 06:51:35;;;;;;;122.22;40.40;;;1.50;99.90;;;;;;4967798;29;20023;-86
2021/12/09 06:54:02;;;;;;;108.70;38.00;;;1.50;99.90;;;;;;4948521;29;20106;-88
2021/12/09 06:56:30;;;;;;;101.93;37.53;;;1.50;99.90;;;;;;4950624;29;20039;-86
2021/12/09 06:58:56;;;;;;;104.72;38.47;;;1.60;99.90;;;;;;4978797;28;20103;-87
2021/12/09 07:01:22;;;;;;;111.30;39.65;;;1.60;99.90;;;;;;4980137;28;20112;-87
2021/12/09 07:03:50;;;;;;;109.82;38.97;;;1.60;99.90;;;;;;4963111;28;20035;-87
2021/12/09 07:06:17;;;;;;;107.90;37.55;;;1.60;99.90;;;;;;4980539;28;20090;-86
2021/12/09 07:08:46;;;;;;;101.95;37.88;;;1.60;99.90;;;;;;4980756;28;20046;-85
2021/12/09 07:11:18;;;;;;;97.13;35.70;;;1.60;99.90;;;;;;4975169;28;20036;-87
2021/12/09 07:13:45;;;;;;;101.18;36.63;;;1.60;99.90;;;;;;4968719;29;20032;-86
2021/12/09 07:16:11;;;;;;;107.13;36.50;;;1.60;99.90;;;;;;4977146;28;20019;-85
2021/12/09 07:18:37;;;;;;;106.45;36.63;;;1.60;99.90;;;;;;4980311;28;20027;-85
2021/12/09 07:21:03;;;;;;;101.97;36.78;;;1.70;99.90;;;;;;4979516;28;20041;-85
2021/12/09 07:23:29;;;;;;;96.20;34.42;;;1.70;99.90;;;;;;4979543;28;20008;-86
2021/12/09 07:25:55;;;;;;;91.07;35.20;;;1.70;99.90;;;;;;4980041;28;20023;-87
2021/12/09 07:28:21;;;;;;;92.00;34.50;;;1.70;99.90;;;;;;4979010;28;20158;-85
2021/12/09 07:30:47;;;;;;;88.78;34.47;;;1.60;99.90;;;;;;4963280;28;20038;-86
2021/12/09 07:33:13;;;;;;;94.25;33.50;;;1.60;99.90;;;;;;4960728;29;20111;-88
2021/12/09 07:35:40;;;;;;;89.13;33.35;;;1.70;99.90;;;;;;4959974;29;20023;-89
2021/12/09 07:38:06;;;;;;;86.90;35.35;;;1.70;99.90;;;;;;4952732;29;20127;-88
2021/12/09 07:40:34;;;;;;;95.80;34.65;;;1.70;99.90;;;;;;4954537;29;20104;-88
2021/12/09 07:43:00;;;;;;;82.13;32.13;;;1.80;99.90;;;;;;4969504;29;20102;-88
2021/12/09 07:45:26;;;;;;;96.13;35.70;;;1.80;99.90;;;;;;4975719;29;20087;-88
2021/12/09 07:47:52;;;;;;;94.53;35.95;;;1.80;99.90;;;;;;4974856;28;20197;-87
2021/12/09 07:50:22;;;;;;;99.80;35.97;;;1.80;99.90;;;;;;4975207;29;20038;-86
2021/12/09 07:52:50;;;;;;;97.15;34.33;;;1.90;99.90;;;;;;4968620;29;20087;-88
2021/12/09 07:55:18;;;;;;;86.43;33.45;;;1.90;99.90;;;;;;4961346;29;20103;-86
2021/12/09 07:57:45;;;;;;;82.20;32.90;;;1.90;99.90;;;;;;4975575;28;20023;-86
2021/12/09 08:00:18;;;;;;;90.93;35.05;;;1.90;99.90;;;;;;4967345;29;20023;-88
2021/12/09 08:02:45;;;;;;;90.43;35.13;;;1.90;99.90;;;;;;4948085;29;20038;-87
2021/12/09 08:05:13;;;;;;;95.80;33.85;;;1.90;99.90;;;;;;4965890;29;20022;-87
2021/12/09 08:07:41;;;;;;;85.25;34.03;;;1.90;99.90;;;;;;4964715;29;20042;-85
2021/12/09 08:10:12;;;;;;;115.45;40.05;;;2.00;99.90;;;;;;4958976;29;20027;-86
2021/12/09 08:12:38;;;;;;;86.75;32.78;;;2.00;99.90;;;;;;4958179;29;20051;-85
2021/12/09 08:15:06;;;;;;;79.93;32.10;;;2.00;99.90;;;;;;4954361;28;20024;-85
2021/12/09 08:20:00;;;;;;;80.95;31.20;;;2.10;99.90;;;;;;4954469;29;20024;-85
2021/12/09 08:22:26;;;;;;;79.28;32.67;;;2.10;99.90;;;;;;4952703;29;20062;-85
2021/12/09 08:24:55;;;;;;;80.80;32.40;;;2.10;99.90;;;;;;4945937;29;20032;-85
2021/12/09 08:27:23;;;;;;;92.07;33.83;;;2.10;99.90;;;;;;4946262;29;20040;-86
2021/12/09 08:29:49;;;;;;;84.75;33.25;;;2.10;99.90;;;;;;4955653;28;20028;-84
2021/12/09 08:32:15;;;;;;;89.55;31.48;;;2.10;99.90;;;;;;4941909;28;20038;-84
2021/12/09 08:34:41;;;;;;;86.07;33.00;;;2.20;99.90;;;;;;4976775;28;20055;-84
2021/12/09 08:37:07;;;;;;;75.15;30.70;;;2.20;99.90;;;;;;4978464;28;20031;-85
2021/12/09 08:39:33;;;;;;;78.43;29.77;;;2.20;99.90;;;;;;4961582;28;20063;-83
2021/12/09 08:41:59;;;;;;;71.60;29.13;;;2.20;99.90;;;;;;4956789;29;20042;-86
2021/12/09 08:44:24;;;;;;;72.75;30.25;;;2.30;99.90;;;;;;4969955;29;20066;-86
2021/12/09 08:46:50;;;;;;;70.05;28.05;;;2.30;99.90;;;;;;4967839;29;20041;-87
2021/12/09 08:49:16;;;;;;;72.32;27.70;;;2.30;99.90;;;;;;4968406;29;20070;-85
2021/12/09 08:51:42;;;;;;;72.43;28.58;;;2.20;99.90;;;;;;4973063;29;20119;-87
2021/12/09 08:54:08;;;;;;;69.40;26.73;;;2.20;99.90;;;;;;4953415;29;20054;-86
2021/12/09 08:56:36;;;;;;;63.05;25.23;;;2.30;99.90;;;;;;4968287;29;20035;-86
2021/12/09 08:59:04;;;;;;;66.80;26.33;;;2.30;99.90;;;;;;4969166;28;20041;-86
2021/12/09 09:01:31;;;;;;;71.57;28.33;;;2.20;99.90;;;;;;4968672;29;20036;-88
2021/12/09 09:03:57;;;;;;;67.25;26.88;;;2.30;99.90;;;;;;4949925;29;20031;-86
2021/12/09 09:06:23;;;;;;;57.40;22.65;;;2.30;99.90;;;;;;4967695;29;20031;-85
2021/12/09 09:08:55;;;;;;;60.38;23.02;;;2.40;99.90;;;;;;4953061;29;20027;-83
2021/12/09 09:11:20;;;;;;;56.15;22.40;;;2.40;99.90;;;;;;4949872;29;20500;-88
2021/12/09 09:13:46;;;;;;;53.60;22.63;;;2.40;99.90;;;;;;4964822;29;20071;-86
2021/12/09 09:16:14;;;;;;;54.70;23.58;;;2.40;99.90;;;;;;4976176;28;20039;-84
2021/12/09 09:18:40;;;;;;;57.63;23.60;;;2.40;99.90;;;;;;4962072;28;20103;-83
2021/12/09 09:21:06;;;;;;;57.15;25.30;;;2.40;99.90;;;;;;4978661;28;20042;-83
2021/12/09 09:23:32;;;;;;;54.63;22.20;;;2.50;99.90;;;;;;4978491;28;20027;-82
2021/12/09 09:25:58;;;;;;;53.33;23.17;;;2.50;99.90;;;;;;4978786;28;20031;-83
2021/12/09 09:28:24;;;;;;;53.10;23.17;;;2.50;99.90;;;;;;4965435;28;20030;-84
2021/12/09 09:30:53;;;;;;;52.85;21.52;;;2.50;99.90;;;;;;4979801;28;20082;-85
2021/12/09 09:33:23;;;;;;;56.75;21.98;;;2.50;99.90;;;;;;4970956;29;20278;-85
2021/12/09 09:35:49;;;;;;;52.50;21.83;;;2.50;99.90;;;;;;4970957;29;20039;-87
2021/12/09 09:38:17;;;;;;;63.30;23.50;;;2.50;99.90;;;;;;4968931;28;20035;-86
2021/12/09 09:40:49;;;;;;;45.55;20.25;;;2.50;99.90;;;;;;4979230;28;20046;-83
2021/12/09 09:46:00;;;;;;;50.15;21.55;;;2.50;99.90;;;;;;4981792;28;20073;-85
2021/12/09 09:48:27;;;;;;;51.58;21.40;;;2.50;99.90;;;;;;4980904;28;20043;-85
2021/12/09 09:50:53;;;;;;;50.90;22.08;;;2.40;99.90;;;;;;4980595;28;20022;-85
2021/12/09 09:53:19;;;;;;;53.13;22.20;;;2.40;99.90;;;;;;4948244;29;20027;-84
2021/12/09 09:55:47;;;;;;;55.17;24.67;;;2.40;99.90;;;;;;4964632;28;20050;-84
2021/12/09 09:58:15;;;;;;;52.45;23.50;;;2.40;99.90;;;;;;4963738;29;20059;-85
2021/12/09 10:00:41;;;;;;;59.42;27.17;;;2.50;99.90;;;;;;4980828;28;20023;-84
2021/12/09 10:03:15;;;;;;;51.47;23.38;;;2.50;99.90;;;;;;4977699;29;20107;-84
2021/12/09 10:05:44;;;;;;;49.03;21.88;;;2.40;99.90;;;;;;4958756;29;20030;-86
2021/12/09 10:08:13;;;;;;;47.08;22.40;;;2.40;99.90;;;;;;4972646;28;20118;-85
2021/12/09 10:10:40;;;;;;;51.58;22.85;;;2.40;99.90;;;;;;4979060;29;20118;-84
2021/12/09 10:13:09;;;;;;;54.60;22.02;;;2.40;99.90;;;;;;4963363;29;20041;-85
2021/12/09 10:15:45;;;;;;;52.38;23.23;;;2.40;99.90;;;;;;4962708;29;20047;-86
2021/12/09 10:18:12;;;;;;;46.75;21.48;;;2.40;99.90;;;;;;4977660;29;20091;-83
2021/12/09 10:20:46;;;;;;;54.28;23.83;;;2.40;99.90;;;;;;4974686;29;20110;-86
2021/12/09 10:23:29;;;;;;;55.75;22.92;;;2.40;99.90;;;;;;4972493;29;20032;-85
2021/12/09 10:26:20;;;;;;;47.25;21.95;;;2.40;99.90;;;;;;4943236;29;20036;-85
2021/12/09 10:29:09;;;;;;;52.00;21.08;;;2.40;99.90;;;;;;4956367;29;20047;-87
2021/12/09 10:31:47;;;;;;;49.80;19.55;;;2.40;99.90;;;;;;4966903;28;20515;-86
2021/12/09 10:34:36;;;;;;;44.45;20.10;;;2.40;99.90;;;;;;4953972;29;20130;-87
2021/12/09 10:37:23;;;;;;;45.65;18.80;;;2.30;99.90;;;;;;4954291;28;20037;-86
2021/12/09 10:39:52;;;;;;;38.50;16.45;;;2.20;99.90;;;;;;4974888;29;20035;-86
2021/12/09 10:42:24;;;;;;;37.50;17.20;;;2.20;99.90;;;;;;4943222;29;20027;-86
2021/12/09 10:45:00;;;;;;;41.13;18.70;;;2.20;99.90;;;;;;4976892;28;20486;-83
2021/12/09 10:52:50;;;;;;;45.60;18.20;;;2.20;99.90;;;;;;4979446;29;20233;-85
2021/12/09 10:55:15;;;;;;;42.33;18.05;;;2.20;99.90;;;;;;4977465;28;20027;-84
2021/12/09 10:57:42;;;;;;;40.53;18.15;;;2.20;99.90;;;;;;4961820;29;20028;-85
2021/12/09 11:00:25;;;;;;;41.63;18.23;;;2.20;99.90;;;;;;4979388;28;20045;-85
2021/12/09 11:03:09;;;;;;;43.03;18.13;;;2.20;99.90;;;;;;4980081;28;20039;-84
2021/12/09 11:05:39;;;;;;;40.72;17.80;;;2.20;99.90;;;;;;4979827;28;20023;-86
2021/12/09 11:08:22;;;;;;;42.60;17.33;;;2.20;99.90;;;;;;4962721;29;20115;-84
2021/12/09 11:10:52;;;;;;;37.35;17.00;;;2.20;99.90;;;;;;4962943;29;20042;-83
2021/12/09 11:13:21;;;;;;;39.58;17.42;;;2.20;99.90;;;;;;4979571;28;20051;-83
2021/12/09 11:15:54;;;;;;;39.50;17.33;;;2.30;99.90;;;;;;4979593;28;20069;-84
2021/12/09 11:18:36;;;;;;;39.90;17.98;;;2.30;99.90;;;;;;4962160;29;20054;-84
2021/12/09 11:21:10;;;;;;;33.83;15.60;;;2.40;99.90;;;;;;4977771;29;20027;-85
2021/12/09 11:23:39;;;;;;;38.90;16.02;;;2.40;99.90;;;;;;4946742;29;20047;-84
2021/12/09 11:26:35;;;;;;;32.42;15.07;;;2.40;99.90;;;;;;4978280;29;20012;-85
2021/12/09 11:29:09;;;;;;;38.92;16.27;;;2.50;99.90;;;;;;4977957;28;20012;-83
2021/12/09 11:31:58;;;;;;;38.78;16.40;;;2.60;99.90;;;;;;4977311;28;20023;-86
2021/12/09 11:34:28;;;;;;;33.75;15.70;;;2.60;99.90;;;;;;4958343;29;20035;-87
2021/12/09 11:37:03;;;;;;;34.75;14.07;;;2.60;99.90;;;;;;4956264;28;20046;-85
2021/12/09 11:39:33;;;;;;;32.90;14.82;;;2.60;99.90;;;;;;4957754;29;20035;-85
2021/12/09 11:42:11;;;;;;;32.20;15.27;;;2.60;99.90;;;;;;4958297;29;20031;-86
2021/12/09 11:44:37;;;;;;;29.90;13.93;;;2.60;99.90;;;;;;4978263;28;20066;-84
2021/12/09 11:47:03;;;;;;;30.77;13.75;;;2.60;99.90;;;;;;4968688;28;20028;-86
2021/12/09 11:49:30;;;;;;;34.38;13.75;;;2.60;99.90;;;;;;4968756;28;20120;-87
2021/12/09 11:51:55;;;;;;;31.65;14.43;;;2.60;99.90;;;;;;4962507;28;20093;-85
2021/12/09 11:54:23;;;;;;;33.33;14.52;;;2.60;99.90;;;;;;4971578;28;20011;-84
2021/12/09 11:59:37;;;;;;;30.45;14.02;;;2.60;99.90;;;;;;4968333;28;20031;-86
2021/12/09 12:11:28;;;;;;;29.10;14.98;;;2.80;99.90;;;;;;4968049;28;20046;-86
2021/12/09 12:19:25;;;;;;;33.05;15.07;;;2.60;99.90;;;;;;4977295;28;20032;-87
2021/12/09 12:22:07;;;;;;;32.30;15.50;;;2.60;99.90;;;;;;4976161;29;20031;-86
2021/12/09 12:27:40;;;;;;;29.27;14.18;;;2.60;99.90;;;;;;4962605;28;20031;-86
2021/12/09 12:33:08;;;;;;;32.22;14.10;;;2.70;99.90;;;;;;4965257;29;20031;-86
2021/12/09 12:38:49;;;;;;;35.55;14.38;;;2.60;99.90;;;;;;4995967;23;20049;-84
2021/12/09 12:41:13;;;;;;;30.48;14.45;;;2.70;99.90;;;;;;4994308;28;20042;-85
2021/12/09 12:43:52;;;;;;;33.58;14.75;;;2.70;99.90;;;;;;4992252;28;20120;-86
2021/12/09 12:47:07;;;;;;;31.00;14.35;;;2.70;99.90;;;;;;4993033;28;20042;-85
2021/12/09 12:52:00;;;;;;;31.33;15.05;;;2.70;99.90;;;;;;4995616;28;20059;-86
2021/12/09 12:55:11;;;;;;;33.85;14.95;;;2.70;99.90;;;;;;4995202;28;20030;-85
2021/12/09 12:57:31;;;;;;;36.80;14.68;;;2.70;99.90;;;;;;4976292;28;20146;-85
2021/12/09 13:00:25;;;;;;;32.58;14.38;;;2.70;99.90;;;;;;4996584;28;20086;-84
2021/12/09 13:05:51;;;;;;;33.05;14.88;;;2.70;99.90;;;;;;5002054;28;20078;-85
2021/12/09 13:11:59;;;;;;;37.45;14.45;;;2.80;99.90;;;;;;4941056;29;20088;-86
2021/12/09 13:14:30;;;;;;;32.28;15.02;;;2.80;99.90;;;;;;4917641;29;20087;-84
2021/12/09 13:17:04;;;;;;;33.17;14.85;;;2.80;99.90;;;;;;4946893;29;20062;-85
2021/12/09 13:19:50;;;;;;;29.05;13.32;;;2.80;99.90;;;;;;4958229;29;20038;-84
2021/12/09 13:22:33;;;;;;;29.70;12.85;;;2.80;99.90;;;;;;4960780;29;20046;-86
2021/12/09 13:25:32;;;;;;;28.77;13.95;;;2.80;99.90;;;;;;4961251;28;20568;-86
2021/12/09 13:54:26;;;;;;;29.30;12.90;;;2.60;99.90;;;;;;4992777;28;20034;-86
2021/12/09 13:57:05;;;;;;;25.55;12.68;;;2.60;99.90;;;;;;4974942;28;20526;-86